Time;durP1;ratioP1;P1;durP2;ratioP2;P2;SDS_P1;SDS_P2;PMS_P1;PMS_P2;Temp;Humidity;BMP_temperature;BMP_pressure;BME280_temperature;BME280_humidity;BME280_pressure;Samples;Min_cycle;Max_cycle;Signal;HPM_P1;HPM_P2
2022/05/10 00:00:04;;;;;;;22.62;7.82;;;;;;;;;;4164111;34;20103;-66
2022/05/10 00:02:32;;;;;;;9.70;4.05;;;;;;;;;;4163798;34;20115;-66
2022/05/10 00:32:42;;;;;;;7.93;2.80;;;;;;;;;;4492916;28;20095;-64
2022/05/10 00:35:20;;;;;;;8.73;2.87;;;;;;;;;;4129858;34;20115;-63
2022/05/10 00:37:48;;;;;;;6.62;3.62;;;;;;;;;;4137889;34;20216;-64
2022/05/10 00:40:18;;;;;;;9.93;3.25;;;;;;;;;;4137556;34;20107;-64
2022/05/10 00:42:55;;;;;;;7.22;2.83;;;;;;;;;;4146206;34;20119;-62
2022/05/10 00:45:44;;;;;;;5.87;3.00;;;;;;;;;;4136653;34;20100;-61
2022/05/10 00:48:19;;;;;;;7.95;2.83;;;;;;;;;;4115402;34;20103;-61
2022/05/10 00:51:00;;;;;;;7.93;3.22;;;;;;;;;;4148587;34;20126;-61
2022/05/10 00:54:28;;;;;;;8.40;2.97;;;;;;;;;;4136365;34;20119;-64
2022/05/10 00:56:54;;;;;;;;;;;;;;;;;;4090877;34;20139;-65
2022/05/10 00:59:28;;;;;;;12.75;3.03;;;;;;;;;;4094306;35;20012;-64
2022/05/10 01:02:05;;;;;;;6.85;3.10;;;;;;;;;;4117917;34;20506;-60
2022/05/10 01:04:40;;;;;;;8.73;3.00;;;;;;;;;;4134888;34;20099;-61
2022/05/10 01:07:15;;;;;;;6.50;3.03;;;;;;;;;;4134856;34;20119;-61
2022/05/10 01:09:46;;;;;;;4.72;2.85;;;;;;;;;;4137016;34;20122;-60
2022/05/10 01:12:14;;;;;;;10.07;3.25;;;;;;;;;;4137045;34;20115;-61
2022/05/10 01:14:47;;;;;;;8.07;3.15;;;;;;;;;;4149725;34;20109;-60
2022/05/10 01:17:13;;;;;;;7.57;4.03;;;;;;;;;;4137200;34;20536;-60
2022/05/10 01:19:40;;;;;;;5.85;3.00;;;;;;;;;;4149894;34;20147;-61
2022/05/10 01:22:27;;;;;;;10.77;3.25;;;;;;;;;;4149659;34;20538;-61
2022/05/10 01:25:13;;;;;;;9.38;3.10;;;;;;;;;;4149696;34;20189;-61
2022/05/10 01:28:10;;;;;;;7.87;3.47;;;;;;;;;;4149587;34;20133;-61
2022/05/10 01:30:36;;;;;;;9.30;3.45;;;;;;;;;;4149498;34;20118;-62
2022/05/10 01:35:53;;;;;;;13.30;5.00;;;;;;;;;;4149235;34;20205;-62
2022/05/10 01:38:25;;;;;;;8.13;3.78;;;;;;;;;;4149513;34;20119;-62
2022/05/10 01:40:55;;;;;;;7.80;4.07;;;;;;;;;;4149447;34;20118;-61
2022/05/10 01:43:24;;;;;;;11.63;4.55;;;;;;;;;;4136820;34;20112;-62
2022/05/10 01:46:04;;;;;;;4.75;3.50;;;;;;;;;;4136713;34;20109;-62
2022/05/10 01:48:33;;;;;;;11.90;3.45;;;;;;;;;;4136906;34;20202;-62
2022/05/10 01:51:07;;;;;;;8.50;3.10;;;;;;;;;;4136917;34;20115;-62
2022/05/10 01:53:35;;;;;;;4.65;3.00;;;;;;;;;;4149524;34;20122;-62
2022/05/10 01:56:06;;;;;;;7.90;3.10;;;;;;;;;;4149384;34;20111;-62
2022/05/10 01:58:35;;;;;;;7.28;3.30;;;;;;;;;;4136492;34;20111;-62
2022/05/10 02:01:22;;;;;;;8.82;3.78;;;;;;;;;;4149128;34;20525;-62
2022/05/10 02:04:00;;;;;;;8.50;3.72;;;;;;;;;;4148634;34;20119;-63
2022/05/10 02:06:31;;;;;;;6.65;3.37;;;;;;;;;;4136013;34;20103;-62
2022/05/10 02:09:06;;;;;;;10.98;3.75;;;;;;;;;;4136416;34;20531;-61
2022/05/10 02:11:35;;;;;;;7.18;3.58;;;;;;;;;;4148936;34;20103;-62
2022/05/10 02:14:24;;;;;;;8.48;3.58;;;;;;;;;;4148863;34;20111;-62
2022/05/10 02:16:58;;;;;;;6.43;3.37;;;;;;;;;;4136652;34;20103;-62
2022/05/10 02:19:45;;;;;;;10.98;3.50;;;;;;;;;;4136584;34;20131;-62
2022/05/10 02:22:36;;;;;;;9.63;3.50;;;;;;;;;;4136327;34;20699;-62
2022/05/10 02:25:06;;;;;;;10.73;3.30;;;;;;;;;;4136508;34;20531;-62
2022/05/10 02:27:39;;;;;;;8.48;3.55;;;;;;;;;;4148795;34;20199;-61
2022/05/10 02:30:08;;;;;;;7.43;3.03;;;;;;;;;;4136559;34;20094;-61
2022/05/10 02:35:25;;;;;;;9.05;3.53;;;;;;;;;;4127874;34;20107;-61
2022/05/10 02:37:51;;;;;;;8.95;3.35;;;;;;;;;;4150896;34;20200;-62
2022/05/10 02:40:18;;;;;;;6.15;3.47;;;;;;;;;;4150894;34;20154;-61
2022/05/10 02:42:47;;;;;;;7.30;3.50;;;;;;;;;;4150909;34;20123;-62
2022/05/10 02:45:18;;;;;;;5.72;3.80;;;;;;;;;;4150805;34;20131;-61
2022/05/10 02:47:45;;;;;;;7.60;3.25;;;;;;;;;;4150833;34;20119;-62
2022/05/10 02:50:21;;;;;;;8.30;4.22;;;;;;;;;;4150781;34;20149;-62
2022/05/10 02:52:47;;;;;;;9.85;4.90;;;;;;;;;;4138027;34;20561;-61
2022/05/10 02:55:19;;;;;;;16.90;4.25;;;;;;;;;;4150998;34;20122;-62
2022/05/10 02:57:47;;;;;;;8.55;3.65;;;;;;;;;;4150709;34;20123;-63
2022/05/10 03:00:14;;;;;;;9.38;3.70;;;;;;;;;;4125587;34;20536;-62
2022/05/10 03:02:43;;;;;;;6.30;3.67;;;;;;;;;;4124727;34;20107;-62
2022/05/10 03:05:10;;;;;;;6.65;3.37;;;;;;;;;;4124769;34;20118;-60
2022/05/10 03:07:38;;;;;;;6.55;3.65;;;;;;;;;;4125060;34;20124;-62
2022/05/10 03:10:06;;;;;;;9.75;3.55;;;;;;;;;;4137181;34;20100;-63
2022/05/10 03:12:32;;;;;;;7.78;3.90;;;;;;;;;;4124622;34;20190;-62
2022/05/10 03:14:58;;;;;;;5.90;3.42;;;;;;;;;;4137008;34;20103;-63
2022/05/10 03:17:24;;;;;;;7.57;3.53;;;;;;;;;;4137365;34;20565;-63
2022/05/10 03:19:50;;;;;;;7.28;3.78;;;;;;;;;;4137353;34;20088;-62
2022/05/10 03:22:16;;;;;;;7.10;3.15;;;;;;;;;;4135573;34;20219;-63
2022/05/10 03:24:42;;;;;;;6.75;3.78;;;;;;;;;;4137113;34;20104;-63
2022/05/10 03:27:09;;;;;;;7.87;3.30;;;;;;;;;;4137227;34;20119;-62
2022/05/10 03:29:36;;;;;;;6.65;3.53;;;;;;;;;;4149807;34;20127;-63
2022/05/10 03:32:02;;;;;;;7.55;3.33;;;;;;;;;;4137777;34;20516;-62
2022/05/10 03:37:13;;;;;;;11.95;3.60;;;;;;;;;;4150430;34;20215;-62
2022/05/10 03:39:39;;;;;;;9.65;3.67;;;;;;;;;;4150354;34;20114;-64
2022/05/10 03:42:06;;;;;;;10.82;3.47;;;;;;;;;;4150378;34;20201;-64
2022/05/10 03:44:32;;;;;;;6.72;3.30;;;;;;;;;;4137622;34;20441;-64
2022/05/10 03:46:58;;;;;;;8.13;3.78;;;;;;;;;;4149338;34;20551;-64
2022/05/10 03:49:24;;;;;;;5.32;3.42;;;;;;;;;;4150275;34;20094;-63
2022/05/10 03:51:50;;;;;;;7.28;3.53;;;;;;;;;;4149878;34;20118;-64
2022/05/10 03:54:17;;;;;;;8.23;3.65;;;;;;;;;;4150228;34;20504;-64
2022/05/10 03:56:43;;;;;;;5.30;3.45;;;;;;;;;;4150229;34;20138;-63
2022/05/10 03:59:09;;;;;;;8.32;3.62;;;;;;;;;;4150282;34;20421;-61
2022/05/10 04:01:35;;;;;;;7.72;3.30;;;;;;;;;;4150312;34;20226;-62
2022/05/10 04:04:01;;;;;;;8.27;3.87;;;;;;;;;;4150182;34;20191;-62
2022/05/10 04:06:28;;;;;;;5.85;3.50;;;;;;;;;;4150015;34;20554;-61
2022/05/10 04:08:54;;;;;;;10.25;4.35;;;;;;;;;;4150245;34;20111;-62
2022/05/10 04:11:20;;;;;;;7.85;3.37;;;;;;;;;;4150045;34;20539;-59
2022/05/10 04:13:47;;;;;;;7.35;4.53;;;;;;;;;;4150059;34;20112;-58
2022/05/10 04:16:13;;;;;;;5.90;3.22;;;;;;;;;;4150191;34;20113;-60
2022/05/10 04:18:39;;;;;;;7.80;3.62;;;;;;;;;;4150193;34;20103;-59
2022/05/10 04:21:05;;;;;;;6.18;3.42;;;;;;;;;;4150259;34;20118;-61
2022/05/10 04:23:31;;;;;;;6.90;3.70;;;;;;;;;;4150478;34;20122;-61
2022/05/10 04:26:10;;;;;;;9.52;4.07;;;;;;;;;;4136813;34;20115;-61
2022/05/10 04:28:36;;;;;;;6.97;3.60;;;;;;;;;;4148184;34;20242;-70
2022/05/10 04:31:04;;;;;;;6.10;3.67;;;;;;;;;;4136238;34;20110;-66
2022/05/10 04:33:31;;;;;;;6.43;2.92;;;;;;;;;;4148800;34;20131;-68
2022/05/10 04:35:57;;;;;;;7.68;3.70;;;;;;;;;;4148882;34;20430;-66
2022/05/10 04:38:23;;;;;;;6.53;3.30;;;;;;;;;;4148895;34;20115;-66
2022/05/10 04:43:36;;;;;;;6.87;3.90;;;;;;;;;;4137282;34;20552;-64
2022/05/10 04:46:02;;;;;;;8.73;3.67;;;;;;;;;;4148836;34;20106;-65
2022/05/10 04:48:28;;;;;;;4.90;3.03;;;;;;;;;;4148772;34;20199;-65
2022/05/10 04:50:54;;;;;;;4.90;3.17;;;;;;;;;;4149490;34;20115;-64
2022/05/10 04:53:22;;;;;;;8.48;3.60;;;;;;;;;;4148718;34;20134;-66
2022/05/10 04:55:49;;;;;;;9.32;3.62;;;;;;;;;;4151022;34;20207;-64
2022/05/10 04:58:16;;;;;;;7.22;3.70;;;;;;;;;;4122340;34;20198;-64
2022/05/10 05:00:42;;;;;;;8.13;3.60;;;;;;;;;;4134410;34;20546;-65
2022/05/10 05:03:08;;;;;;;5.93;3.45;;;;;;;;;;4134382;34;20457;-65
2022/05/10 05:05:34;;;;;;;8.45;3.37;;;;;;;;;;4134641;34;20115;-64
2022/05/10 05:08:00;;;;;;;7.32;3.58;;;;;;;;;;4134186;34;20246;-64
2022/05/10 05:10:26;;;;;;;6.12;3.37;;;;;;;;;;4134092;34;20126;-62
2022/05/10 05:12:52;;;;;;;9.88;4.72;;;;;;;;;;4146087;34;20122;-67
2022/05/10 05:15:18;;;;;;;9.32;3.90;;;;;;;;;;4149266;34;20149;-64
2022/05/10 05:17:44;;;;;;;6.82;3.60;;;;;;;;;;4147701;34;20300;-64
2022/05/10 05:20:11;;;;;;;8.90;4.03;;;;;;;;;;4147546;34;20119;-64
2022/05/10 05:22:37;;;;;;;8.48;3.67;;;;;;;;;;4147658;34;20131;-64
2022/05/10 05:25:04;;;;;;;8.23;3.30;;;;;;;;;;4148287;34;20525;-64
2022/05/10 05:27:30;;;;;;;6.53;3.12;;;;;;;;;;4147653;34;20114;-64
2022/05/10 05:29:57;;;;;;;5.28;2.78;;;;;;;;;;4147496;34;20226;-64
2022/05/10 05:32:27;;;;;;;5.35;3.25;;;;;;;;;;4148932;34;20107;-63
2022/05/10 05:34:55;;;;;;;6.40;3.10;;;;;;;;;;4148088;34;20196;-64
2022/05/10 05:37:32;;;;;;;6.22;3.17;;;;;;;;;;4147128;34;20118;-64
2022/05/10 05:39:59;;;;;;;4.45;3.03;;;;;;;;;;4147427;34;20115;-65
2022/05/10 05:42:25;;;;;;;6.00;3.22;;;;;;;;;;4147357;34;20194;-65
2022/05/10 05:44:51;;;;;;;7.72;3.20;;;;;;;;;;4147324;34;20115;-65
2022/05/10 05:47:17;;;;;;;7.30;3.30;;;;;;;;;;4147581;34;20111;-64
2022/05/10 05:49:43;;;;;;;7.47;4.62;;;;;;;;;;4147819;34;20153;-63
2022/05/10 05:52:09;;;;;;;8.60;3.90;;;;;;;;;;4148526;34;20215;-63
2022/05/10 05:54:35;;;;;;;4.97;3.70;;;;;;;;;;4149094;34;20149;-64
2022/05/10 05:57:06;;;;;;;6.72;3.20;;;;;;;;;;4149343;34;20130;-63
2022/05/10 05:59:32;;;;;;;9.02;3.30;;;;;;;;;;4149174;34;20585;-64
2022/05/10 06:01:59;;;;;;;6.00;3.33;;;;;;;;;;4149006;34;20115;-64
2022/05/10 06:04:25;;;;;;;6.25;3.08;;;;;;;;;;4136529;34;20112;-64
2022/05/10 06:06:51;;;;;;;6.12;3.35;;;;;;;;;;4149011;34;20114;-64
2022/05/10 06:09:22;;;;;;;5.32;3.62;;;;;;;;;;4149012;34;20107;-64
2022/05/10 06:11:49;;;;;;;5.72;3.47;;;;;;;;;;4151145;34;20095;-63
2022/05/10 06:14:16;;;;;;;7.07;3.22;;;;;;;;;;4138426;34;20219;-63
2022/05/10 06:16:42;;;;;;;6.62;3.97;;;;;;;;;;4151337;34;20111;-63
2022/05/10 06:19:10;;;;;;;5.50;3.50;;;;;;;;;;4151381;34;20103;-64
2022/05/10 06:21:36;;;;;;;5.75;3.58;;;;;;;;;;4151115;34;20130;-64
2022/05/10 06:24:03;;;;;;;4.40;3.17;;;;;;;;;;4151008;34;20114;-64
2022/05/10 06:26:28;;;;;;;8.73;3.20;;;;;;;;;;4151104;34;20120;-64
2022/05/10 06:28:54;;;;;;;5.28;3.20;;;;;;;;;;4151035;34;20129;-64
2022/05/10 06:31:20;;;;;;;7.55;3.58;;;;;;;;;;4151113;34;20103;-64
2022/05/10 06:33:46;;;;;;;6.97;3.60;;;;;;;;;;4150859;34;20476;-62
2022/05/10 06:36:12;;;;;;;5.87;2.97;;;;;;;;;;4151607;34;20116;-64
2022/05/10 06:38:40;;;;;;;7.28;4.00;;;;;;;;;;4151192;34;20610;-63
2022/05/10 06:41:06;;;;;;;7.30;3.35;;;;;;;;;;4151680;34;20099;-65
2022/05/10 06:43:36;;;;;;;4.90;3.10;;;;;;;;;;4151455;34;20115;-64
2022/05/10 06:46:14;;;;;;;4.35;2.95;;;;;;;;;;4151359;34;20207;-65
2022/05/10 06:48:40;;;;;;;6.78;4.07;;;;;;;;;;4151160;34;20099;-64
2022/05/10 06:51:10;;;;;;;6.35;3.72;;;;;;;;;;4138403;34;20135;-64
2022/05/10 06:53:36;;;;;;;6.05;3.70;;;;;;;;;;4150868;34;20214;-64
2022/05/10 06:56:04;;;;;;;5.57;3.40;;;;;;;;;;4151024;34;20106;-64
2022/05/10 06:58:30;;;;;;;5.25;3.53;;;;;;;;;;4150907;34;20127;-64
2022/05/10 07:00:56;;;;;;;8.85;3.87;;;;;;;;;;4150841;34;20630;-64
2022/05/10 07:03:28;;;;;;;8.18;4.95;;;;;;;;;;4150522;34;20162;-64
2022/05/10 07:05:55;;;;;;;6.37;3.75;;;;;;;;;;4150764;34;20115;-64
2022/05/10 07:08:21;;;;;;;6.78;3.95;;;;;;;;;;4150480;34;20119;-64
2022/05/10 07:10:47;;;;;;;7.35;4.05;;;;;;;;;;4150893;34;20127;-64
2022/05/10 07:13:18;;;;;;;7.35;4.53;;;;;;;;;;4150975;34;20119;-64
2022/05/10 07:15:44;;;;;;;6.43;4.25;;;;;;;;;;4150497;34;20111;-64
2022/05/10 07:18:11;;;;;;;6.80;4.85;;;;;;;;;;4150961;34;20111;-63
2022/05/10 07:20:37;;;;;;;6.82;4.72;;;;;;;;;;4150421;34;20102;-64
2022/05/10 07:23:03;;;;;;;6.95;4.90;;;;;;;;;;4150637;34;20110;-64
2022/05/10 07:25:29;;;;;;;4.50;3.75;;;;;;;;;;4150544;34;20455;-64
2022/05/10 07:27:56;;;;;;;8.70;4.32;;;;;;;;;;4150480;34;20114;-63
2022/05/10 07:30:23;;;;;;;6.72;3.78;;;;;;;;;;4150441;34;20130;-63
2022/05/10 07:32:49;;;;;;;8.15;4.87;;;;;;;;;;4150475;34;20104;-64
2022/05/10 07:35:17;;;;;;;5.70;4.78;;;;;;;;;;4150328;34;20187;-63
2022/05/10 07:37:44;;;;;;;6.87;4.28;;;;;;;;;;4150480;34;20110;-64
2022/05/10 07:40:11;;;;;;;6.15;4.07;;;;;;;;;;4137977;34;20107;-62
2022/05/10 07:42:39;;;;;;;4.95;3.35;;;;;;;;;;4150642;34;20186;-64
2022/05/10 07:45:07;;;;;;;7.00;3.83;;;;;;;;;;4150437;34;20103;-64
2022/05/10 07:47:32;;;;;;;7.05;3.35;;;;;;;;;;4150406;34;20131;-64
2022/05/10 07:49:59;;;;;;;5.70;3.30;;;;;;;;;;4126577;34;20766;-64
2022/05/10 07:52:25;;;;;;;5.37;3.67;;;;;;;;;;4150307;34;20133;-64
2022/05/10 07:54:51;;;;;;;4.97;3.90;;;;;;;;;;4150326;34;20596;-64
2022/05/10 07:57:17;;;;;;;5.18;3.12;;;;;;;;;;4150576;34;20134;-64
2022/05/10 07:59:43;;;;;;;5.82;4.05;;;;;;;;;;4150348;34;20119;-63
2022/05/10 08:02:09;;;;;;;5.18;3.50;;;;;;;;;;4150190;34;20598;-64
2022/05/10 08:04:35;;;;;;;5.65;3.50;;;;;;;;;;4137740;34;20138;-64
2022/05/10 08:07:01;;;;;;;9.98;3.47;;;;;;;;;;4150203;34;20202;-65
2022/05/10 08:09:27;;;;;;;4.03;3.10;;;;;;;;;;4150129;34;20127;-64
2022/05/10 08:11:54;;;;;;;4.50;3.10;;;;;;;;;;4150290;34;20491;-64
2022/05/10 08:14:20;;;;;;;5.93;3.83;;;;;;;;;;4150035;34;20127;-63
2022/05/10 08:16:46;;;;;;;8.32;3.58;;;;;;;;;;4150055;34;20536;-64
2022/05/10 08:19:12;;;;;;;6.95;3.75;;;;;;;;;;4150132;34;20848;-65
2022/05/10 08:21:38;;;;;;;5.95;3.12;;;;;;;;;;4150242;34;20087;-64
2022/05/10 08:24:05;;;;;;;7.65;3.42;;;;;;;;;;4150147;34;20504;-65
2022/05/10 08:26:31;;;;;;;4.10;3.17;;;;;;;;;;4150080;34;20099;-64
2022/05/10 08:28:57;;;;;;;7.50;3.35;;;;;;;;;;4137411;34;20234;-64
2022/05/10 08:31:23;;;;;;;6.87;3.33;;;;;;;;;;4150053;34;20169;-64
2022/05/10 08:33:49;;;;;;;8.25;3.95;;;;;;;;;;4149380;34;20582;-63
2022/05/10 08:36:15;;;;;;;7.03;3.83;;;;;;;;;;4149863;34;20219;-64
2022/05/10 08:38:41;;;;;;;8.25;4.57;;;;;;;;;;4150087;34;20194;-64
2022/05/10 08:41:20;;;;;;;4.30;3.30;;;;;;;;;;4150022;34;20087;-64
2022/05/10 08:43:55;;;;;;;5.40;3.83;;;;;;;;;;4137332;34;20138;-64
2022/05/10 08:46:26;;;;;;;5.37;3.47;;;;;;;;;;4149851;34;20193;-65
2022/05/10 08:48:57;;;;;;;5.78;3.28;;;;;;;;;;4137619;34;20103;-65
2022/05/10 08:51:23;;;;;;;4.82;3.70;;;;;;;;;;4137511;34;20115;-64
2022/05/10 08:53:49;;;;;;;6.00;3.75;;;;;;;;;;4150042;34;20202;-64
2022/05/10 08:56:28;;;;;;;5.15;3.65;;;;;;;;;;4150074;34;20227;-64
2022/05/10 08:59:06;;;;;;;5.35;3.47;;;;;;;;;;4137228;34;20182;-64
2022/05/10 09:01:37;;;;;;;5.12;3.17;;;;;;;;;;4137316;34;20091;-64
2022/05/10 09:04:40;;;;;;;4.70;3.87;;;;;;;;;;4149757;34;20576;-65
2022/05/10 09:07:35;;;;;;;4.85;3.33;;;;;;;;;;4149660;34;20127;-64
2022/05/10 09:10:02;;;;;;;4.78;3.62;;;;;;;;;;4149777;34;20131;-65
2022/05/10 09:12:28;;;;;;;5.60;3.70;;;;;;;;;;4149758;34;20099;-64
2022/05/10 09:15:03;;;;;;;6.07;3.25;;;;;;;;;;4137020;34;20118;-64
2022/05/10 09:17:34;;;;;;;6.93;4.00;;;;;;;;;;4149522;34;20515;-64
2022/05/10 09:20:01;;;;;;;5.93;3.90;;;;;;;;;;4149671;34;20103;-65
2022/05/10 09:22:42;;;;;;;4.00;3.60;;;;;;;;;;4149674;34;20115;-64
2022/05/10 09:25:26;;;;;;;5.90;4.05;;;;;;;;;;4150184;34;20095;-64
2022/05/10 09:27:52;;;;;;;5.22;3.67;;;;;;;;;;4149578;34;20208;-64
2022/05/10 09:30:30;;;;;;;6.95;3.55;;;;;;;;;;4136896;34;20187;-65
2022/05/10 09:36:01;;;;;;;4.87;3.80;;;;;;;;;;4149363;34;20190;-64
2022/05/10 09:38:27;;;;;;;4.62;3.55;;;;;;;;;;4149333;34;20111;-64
2022/05/10 09:40:54;;;;;;;4.37;3.70;;;;;;;;;;4149430;34;20111;-65
2022/05/10 09:43:26;;;;;;;5.60;4.07;;;;;;;;;;4149600;34;20096;-66
2022/05/10 09:46:11;;;;;;;7.03;3.90;;;;;;;;;;4138825;34;20143;-64
2022/05/10 09:48:39;;;;;;;7.32;4.20;;;;;;;;;;4151331;34;20130;-65
2022/05/10 09:51:35;;;;;;;7.18;4.10;;;;;;;;;;4151409;34;20118;-65
2022/05/10 09:54:04;;;;;;;10.77;4.03;;;;;;;;;;4151140;34;20123;-65
2022/05/10 09:56:37;;;;;;;6.72;4.30;;;;;;;;;;4151308;34;20515;-64
2022/05/10 09:59:29;;;;;;;6.72;3.85;;;;;;;;;;4151207;34;20174;-65
2022/05/10 10:01:58;;;;;;;4.53;3.80;;;;;;;;;;4151306;34;20096;-65
2022/05/10 10:04:34;;;;;;;6.65;3.72;;;;;;;;;;4151076;34;20145;-65
2022/05/10 10:07:13;;;;;;;4.35;3.47;;;;;;;;;;4138609;34;20107;-65
2022/05/10 10:09:42;;;;;;;6.05;4.35;;;;;;;;;;4151254;34;20116;-64
2022/05/10 10:12:37;;;;;;;4.82;3.25;;;;;;;;;;4151094;34;20115;-65
2022/05/10 10:15:20;;;;;;;5.62;3.70;;;;;;;;;;4151076;34;20122;-65
2022/05/10 10:17:55;;;;;;;4.68;3.47;;;;;;;;;;4151033;34;20204;-65
2022/05/10 10:20:29;;;;;;;7.65;3.50;;;;;;;;;;4151053;34;20126;-64
2022/05/10 10:22:56;;;;;;;5.10;3.80;;;;;;;;;;4151022;34;20126;-65
2022/05/10 10:25:41;;;;;;;5.68;3.85;;;;;;;;;;4138363;34;20115;-65
2022/05/10 10:28:29;;;;;;;4.63;3.77;;;;;;;;;;4138408;34;20536;-65
2022/05/10 10:31:13;;;;;;;4.50;3.70;;;;;;;;;;4150992;34;20206;-66
2022/05/10 10:33:48;;;;;;;4.15;3.28;;;;;;;;;;4151133;34;20118;-67
2022/05/10 10:36:19;;;;;;;3.95;3.50;;;;;;;;;;4138329;34;20192;-64
2022/05/10 10:39:13;;;;;;;5.15;4.20;;;;;;;;;;4151023;34;20095;-65
2022/05/10 10:41:42;;;;;;;5.03;4.05;;;;;;;;;;4150786;34;20604;-64
2022/05/10 10:44:26;;;;;;;4.35;3.85;;;;;;;;;;4150709;34;20532;-66
2022/05/10 10:47:07;;;;;;;5.35;3.62;;;;;;;;;;4138466;34;20217;-65
2022/05/10 10:49:52;;;;;;;5.65;3.78;;;;;;;;;;4150773;34;20205;-65
2022/05/10 10:52:18;;;;;;;7.12;4.10;;;;;;;;;;4151146;34;20106;-65
2022/05/10 10:54:46;;;;;;;12.68;4.97;;;;;;;;;;4150673;34;20115;-65
2022/05/10 10:57:20;;;;;;;5.40;4.53;;;;;;;;;;4150659;34;20108;-65
2022/05/10 11:00:06;;;;;;;5.45;3.72;;;;;;;;;;4151002;34;20095;-65
2022/05/10 11:03:05;;;;;;;6.55;3.78;;;;;;;;;;4127204;34;20516;-64
2022/05/10 11:05:40;;;;;;;5.80;3.70;;;;;;;;;;4149688;34;20112;-65
2022/05/10 11:08:12;;;;;;;5.90;3.62;;;;;;;;;;4136861;34;20219;-64
2022/05/10 11:11:02;;;;;;;7.37;4.18;;;;;;;;;;4125217;34;20541;-62
2022/05/10 11:13:51;;;;;;;7.32;4.12;;;;;;;;;;4134959;34;20158;-62
2022/05/10 11:16:29;;;;;;;6.57;3.20;;;;;;;;;;4136372;34;20099;-61
2022/05/10 11:19:32;;;;;;;7.20;3.70;;;;;;;;;;4136897;34;20539;-60
2022/05/10 11:22:39;;;;;;;7.03;3.50;;;;;;;;;;4149305;34;20118;-66
2022/05/10 11:25:32;;;;;;;8.65;3.72;;;;;;;;;;4128328;34;20468;-62
2022/05/10 11:28:20;;;;;;;4.68;3.78;;;;;;;;;;4136030;34;20131;-63
2022/05/10 11:30:58;;;;;;;6.18;3.55;;;;;;;;;;4136136;34;20115;-64
2022/05/10 11:33:45;;;;;;;5.32;3.58;;;;;;;;;;4146821;34;20484;-63
2022/05/10 11:36:44;;;;;;;6.68;4.30;;;;;;;;;;4129835;34;20123;-63
2022/05/10 11:39:35;;;;;;;6.95;3.97;;;;;;;;;;4145153;34;20170;-63
2022/05/10 11:42:25;;;;;;;6.93;3.33;;;;;;;;;;4146452;34;20210;-63
2022/05/10 11:45:13;;;;;;;5.37;3.75;;;;;;;;;;4146164;34;20572;-63
2022/05/10 11:48:05;;;;;;;4.93;3.78;;;;;;;;;;4150542;34;20103;-64
2022/05/10 11:51:44;;;;;;;5.97;3.78;;;;;;;;;;4138071;34;20526;-65
2022/05/10 11:54:51;;;;;;;6.93;3.87;;;;;;;;;;4107738;34;20553;-65
2022/05/10 11:57:19;;;;;;;6.43;3.70;;;;;;;;;;4042758;35;20105;-64
2022/05/10 11:59:45;;;;;;;10.95;4.43;;;;;;;;;;4127002;34;20460;-63
2022/05/10 12:02:29;;;;;;;7.53;3.08;;;;;;;;;;4150251;34;20224;-65
2022/05/10 12:05:20;;;;;;;6.32;4.03;;;;;;;;;;4134617;34;20119;-64
2022/05/10 12:07:51;;;;;;;6.57;3.60;;;;;;;;;;4143201;34;20203;-65
2022/05/10 12:10:36;;;;;;;7.10;4.10;;;;;;;;;;4137580;34;20570;-66
2022/05/10 12:22:16;;;;;;;7.03;4.90;;;;;;;;;;4136182;34;20103;-68
2022/05/10 12:24:49;;;;;;;5.70;4.10;;;;;;;;;;4149187;34;20533;-67
2022/05/10 12:27:15;;;;;;;9.85;5.35;;;;;;;;;;4137123;34;20123;-68
2022/05/10 12:29:41;;;;;;;6.32;4.55;;;;;;;;;;4150068;34;20571;-67
2022/05/10 12:32:41;;;;;;;5.00;4.43;;;;;;;;;;4150085;34;20134;-68
2022/05/10 12:35:33;;;;;;;5.87;4.00;;;;;;;;;;4150085;34;20095;-68
2022/05/10 12:38:00;;;;;;;6.80;4.75;;;;;;;;;;4149866;34;20191;-69
2022/05/10 12:40:33;;;;;;;4.55;3.30;;;;;;;;;;4126141;34;20224;-67
2022/05/10 12:43:07;;;;;;;5.43;3.60;;;;;;;;;;4148090;34;20199;-66
2022/05/10 12:45:48;;;;;;;4.22;3.40;;;;;;;;;;4142584;34;20126;-68
2022/05/10 12:48:39;;;;;;;6.87;3.80;;;;;;;;;;4149829;34;20120;-65
2022/05/10 12:51:14;;;;;;;7.05;3.92;;;;;;;;;;4148121;34;20129;-66
2022/05/10 12:54:08;;;;;;;7.12;4.93;;;;;;;;;;4148820;34;20547;-64
2022/05/10 12:56:46;;;;;;;6.95;4.60;;;;;;;;;;4137050;34;20644;-64
2022/05/10 12:59:19;;;;;;;9.25;5.18;;;;;;;;;;4148582;34;20569;-63
2022/05/10 13:01:46;;;;;;;6.85;4.70;;;;;;;;;;4145271;34;20139;-64
2022/05/10 13:04:20;;;;;;;7.35;4.57;;;;;;;;;;4144215;34;20469;-64
2022/05/10 13:07:02;;;;;;;6.43;4.78;;;;;;;;;;4143599;34;20127;-64
2022/05/10 13:09:38;;;;;;;6.47;4.30;;;;;;;;;;4130165;34;20207;-65
2022/05/10 13:12:30;;;;;;;6.25;4.62;;;;;;;;;;4143909;34;20592;-63
2022/05/10 13:15:11;;;;;;;6.30;4.50;;;;;;;;;;4141086;34;20117;-64
2022/05/10 13:17:37;;;;;;;7.47;4.85;;;;;;;;;;4146378;34;20202;-66
2022/05/10 13:20:12;;;;;;;5.85;4.22;;;;;;;;;;4133998;34;20502;-63
2022/05/10 13:22:47;;;;;;;8.75;4.70;;;;;;;;;;4133934;34;20660;-62
2022/05/10 13:25:13;;;;;;;6.37;4.70;;;;;;;;;;4127922;34;20123;-62
2022/05/10 13:27:41;;;;;;;6.10;4.43;;;;;;;;;;4143320;34;20156;-65
2022/05/10 13:30:12;;;;;;;5.97;3.72;;;;;;;;;;4143488;34;21201;-60
2022/05/10 13:32:40;;;;;;;6.95;4.15;;;;;;;;;;4157846;34;20206;-62
2022/05/10 13:35:11;;;;;;;5.97;4.18;;;;;;;;;;4159165;34;20115;-62
2022/05/10 13:37:43;;;;;;;7.28;4.20;;;;;;;;;;4137584;34;20162;-61
2022/05/10 13:40:27;;;;;;;9.20;4.03;;;;;;;;;;4137172;34;20102;-62
2022/05/10 13:42:54;;;;;;;9.07;4.55;;;;;;;;;;4149798;34;20109;-60
2022/05/10 13:45:23;;;;;;;8.68;5.32;;;;;;;;;;4137271;34;20111;-62
2022/05/10 13:47:52;;;;;;;7.45;5.15;;;;;;;;;;4136618;34;20542;-62
2022/05/10 13:50:25;;;;;;;7.75;4.70;;;;;;;;;;4136741;34;20131;-62
2022/05/10 13:52:57;;;;;;;7.32;4.50;;;;;;;;;;4147691;34;20135;-62
2022/05/10 13:55:25;;;;;;;8.48;5.10;;;;;;;;;;4136570;34;20476;-61
2022/05/10 13:57:54;;;;;;;11.68;6.00;;;;;;;;;;4148637;34;20154;-61
2022/05/10 14:00:52;;;;;;;7.85;5.75;;;;;;;;;;4149175;34;20277;-61
2022/05/10 14:03:20;;;;;;;7.62;5.30;;;;;;;;;;4147692;34;20115;-62
2022/05/10 14:05:47;;;;;;;6.80;4.85;;;;;;;;;;4149145;34;20100;-61
2022/05/10 14:08:24;;;;;;;6.20;3.90;;;;;;;;;;4136391;34;20103;-62
2022/05/10 14:11:18;;;;;;;8.77;5.10;;;;;;;;;;4136138;34;20199;-65
2022/05/10 14:13:51;;;;;;;7.97;5.10;;;;;;;;;;4123357;34;20107;-66
2022/05/10 14:16:35;;;;;;;11.15;5.45;;;;;;;;;;4148527;34;20162;-64
2022/05/10 14:19:08;;;;;;;7.93;4.95;;;;;;;;;;4136481;34;20103;-65
2022/05/10 14:21:35;;;;;;;6.32;5.37;;;;;;;;;;4136391;34;20484;-66
2022/05/10 14:24:04;;;;;;;7.68;5.10;;;;;;;;;;4136388;34;20191;-67
2022/05/10 14:26:39;;;;;;;8.73;5.10;;;;;;;;;;4135005;34;20610;-65
2022/05/10 14:29:13;;;;;;;7.55;4.45;;;;;;;;;;4149210;34;20206;-66
2022/05/10 14:31:40;;;;;;;10.18;4.50;;;;;;;;;;4149434;34;20115;-66
2022/05/10 14:34:08;;;;;;;7.45;5.45;;;;;;;;;;4149849;34;20162;-66
2022/05/10 14:36:39;;;;;;;10.25;4.93;;;;;;;;;;4149484;34;20103;-65
2022/05/10 14:39:30;;;;;;;10.93;5.37;;;;;;;;;;4149839;34;20500;-65
2022/05/10 14:41:56;;;;;;;7.60;5.12;;;;;;;;;;4137588;34;20202;-64
2022/05/10 14:44:29;;;;;;;7.37;4.97;;;;;;;;;;4149911;34;20102;-65
2022/05/10 14:46:57;;;;;;;5.97;5.00;;;;;;;;;;4137388;34;20195;-64
2022/05/10 14:49:38;;;;;;;6.15;5.18;;;;;;;;;;4150774;34;20190;-66
2022/05/10 14:52:24;;;;;;;6.93;4.85;;;;;;;;;;4137218;34;20130;-64
2022/05/10 14:54:52;;;;;;;9.15;6.12;;;;;;;;;;4113374;34;20131;-67
2022/05/10 14:57:26;;;;;;;9.32;5.72;;;;;;;;;;4144167;34;20516;-66
2022/05/10 14:59:56;;;;;;;9.10;5.97;;;;;;;;;;4150191;34;20099;-65
2022/05/10 15:02:37;;;;;;;12.05;6.07;;;;;;;;;;4150692;34;20183;-67
2022/05/10 15:05:12;;;;;;;6.65;4.75;;;;;;;;;;4137897;34;20107;-63
2022/05/10 15:07:39;;;;;;;8.48;5.45;;;;;;;;;;4150405;34;20103;-63
2022/05/10 15:10:06;;;;;;;7.62;5.78;;;;;;;;;;4146203;34;20103;-65
2022/05/10 15:15:16;;;;;;;6.07;5.15;;;;;;;;;;4145344;34;20111;-68
2022/05/10 15:20:27;;;;;;;9.13;5.28;;;;;;;;;;4140698;34;20554;-67
2022/05/10 15:22:53;;;;;;;10.63;5.40;;;;;;;;;;4150771;34;20119;-66
2022/05/10 15:25:19;;;;;;;8.10;5.18;;;;;;;;;;4137457;34;20118;-67
2022/05/10 15:27:45;;;;;;;6.28;4.60;;;;;;;;;;4150330;34;20131;-66
2022/05/10 15:30:13;;;;;;;5.47;4.62;;;;;;;;;;4137618;34;20578;-67
2022/05/10 15:32:39;;;;;;;8.77;4.68;;;;;;;;;;4137729;34;20111;-66
2022/05/10 15:35:05;;;;;;;8.98;4.62;;;;;;;;;;4149255;34;20202;-67
2022/05/10 15:37:32;;;;;;;6.00;4.53;;;;;;;;;;4149530;34;20114;-65
2022/05/10 15:39:58;;;;;;;7.55;4.80;;;;;;;;;;4122862;34;20143;-63
2022/05/10 15:42:30;;;;;;;7.55;4.07;;;;;;;;;;4123625;34;20155;-63
2022/05/10 15:44:56;;;;;;;6.22;4.35;;;;;;;;;;4125061;34;20110;-61
2022/05/10 15:47:25;;;;;;;6.97;5.15;;;;;;;;;;4148959;34;20147;-61
2022/05/10 15:49:52;;;;;;;8.13;5.22;;;;;;;;;;4126263;34;20211;-62
2022/05/10 15:52:18;;;;;;;5.95;4.90;;;;;;;;;;4150047;34;20104;-62
2022/05/10 15:54:44;;;;;;;9.63;4.80;;;;;;;;;;4135702;34;20123;-62
2022/05/10 15:57:12;;;;;;;6.90;4.87;;;;;;;;;;4147136;34;20115;-61
2022/05/10 15:59:38;;;;;;;7.28;5.10;;;;;;;;;;4134428;34;20135;-61
2022/05/10 16:02:05;;;;;;;8.00;5.12;;;;;;;;;;4136864;34;20095;-62
2022/05/10 16:04:31;;;;;;;8.65;5.05;;;;;;;;;;4150102;34;20135;-63
2022/05/10 16:06:57;;;;;;;7.25;4.72;;;;;;;;;;4137594;34;20582;-62
2022/05/10 16:09:23;;;;;;;12.70;5.25;;;;;;;;;;4149717;34;20195;-62